Time;durP1;ratioP1;P1;durP2;ratioP2;P2;SDS_P1;SDS_P2;PMS_P1;PMS_P2;Temp;Humidity;BMP_temperature;BMP_pressure;BME280_temperature;BME280_humidity;BME280_pressure;Samples;Min_cycle;Max_cycle;Signal;HPM_P1;HPM_P2
2023/10/18 00:02:38;;;;;;;17.48;10.95;;;;;;;11.39;48.86;100721.83;1669804;84;21359;-81
2023/10/18 00:05:49;;;;;;;18.20;10.95;;;;;;;11.32;48.98;100718.05;1671179;84;21344;-81
2023/10/18 00:08:59;;;;;;;16.00;9.98;;;;;;;11.36;48.85;100722.16;1669644;86;21288;-80
2023/10/18 00:12:07;;;;;;;11.73;8.25;;;;;;;11.38;48.86;100725.57;1670274;84;21323;-81
2023/10/18 00:15:14;;;;;;;15.63;10.75;;;;;;;11.13;49.08;100720.61;1670601;86;21881;-82
2023/10/18 00:18:20;;;;;;;14.85;10.20;;;;;;;11.06;49.01;100720.97;1671059;86;21336;-80
2023/10/18 00:21:27;;;;;;;13.65;9.88;;;;;;;11.11;48.59;100709.51;1670800;84;21367;-82
2023/10/18 00:24:33;;;;;;;17.50;11.15;;;;;;;10.90;48.93;100713.56;1670097;86;21315;-82
2023/10/18 00:27:41;;;;;;;18.85;11.18;;;;;;;10.68;49.40;100716.94;1669678;84;21343;-80
2023/10/18 00:30:49;;;;;;;17.77;11.93;;;;;;;10.71;49.21;100715.24;1670197;84;21370;-79
2023/10/18 00:33:56;;;;;;;20.43;12.45;;;;;;;10.71;49.19;100711.99;1670909;86;21370;-79
2023/10/18 00:37:01;;;;;;;17.15;11.22;;;;;;;10.44;49.52;100710.88;1669875;84;21343;-83
2023/10/18 00:40:09;;;;;;;22.10;13.32;;;;;;;10.25;50.20;100712.00;1669634;86;21332;-79
2023/10/18 00:43:26;;;;;;;19.95;13.18;;;;;;;10.42;50.00;100710.20;1672142;85;21339;-82
2023/10/18 00:46:32;;;;;;;18.45;12.85;;;;;;;10.40;50.08;100716.36;1642841;85;21336;-79
2023/10/18 00:49:38;;;;;;;19.62;13.10;;;;;;;10.60;49.39;100720.52;1640772;87;21933;-82
2023/10/18 00:52:45;;;;;;;18.87;12.40;;;;;;;10.36;50.07;100713.61;1640171;86;21372;-82
2023/10/18 00:55:57;;;;;;;22.10;13.18;;;;;;;10.20;50.55;100711.61;1641067;86;21407;-81
2023/10/18 00:59:04;;;;;;;19.45;12.43;;;;;;;10.72;49.59;100712.33;1655115;85;21347;-79
2023/10/18 01:02:18;;;;;;;18.42;11.57;;;;;;;10.90;49.09;100716.30;1681477;84;21306;-80
2023/10/18 01:05:22;;;;;;;16.70;10.20;;;;;;;10.75;49.59;100716.62;1682818;85;21307;-80
2023/10/18 01:08:29;;;;;;;17.37;10.20;;;;;;;10.69;49.33;100720.89;1682639;85;21303;-79
2023/10/18 01:11:37;;;;;;;13.83;10.30;;;;;;;10.49;50.01;100721.70;1659685;85;21848;-79
2023/10/18 01:14:42;;;;;;;14.35;9.78;;;;;;;10.35;49.80;100722.33;1682731;85;21291;-80
2023/10/18 01:17:50;;;;;;;17.67;10.58;;;;;;;10.05;50.08;100722.31;1659438;85;21318;-81
2023/10/18 01:20:56;;;;;;;13.38;9.73;;;;;;;10.10;50.13;100725.92;1681696;84;21223;-82
2023/10/18 01:24:14;;;;;;;15.45;9.93;;;;;;;9.83;50.83;100719.61;1683003;85;21315;-79
2023/10/18 01:27:16;;;;;;;12.85;9.85;;;;;;;9.84;50.92;100719.98;1681659;84;21323;-79
2023/10/18 01:30:22;;;;;;;15.05;10.20;;;;;;;9.92;50.72;100724.11;1682270;85;21307;-83
2023/10/18 01:33:31;;;;;;;15.80;10.30;;;;;;;10.32;49.75;100720.42;1683146;85;21879;-82
2023/10/18 01:36:42;;;;;;;16.85;10.20;;;;;;;10.36;49.28;100724.03;1682675;84;21422;-81
2023/10/18 01:39:46;;;;;;;17.05;10.30;;;;;;;9.98;50.12;100724.85;1681981;85;21338;-81
2023/10/18 01:43:00;;;;;;;20.45;11.15;;;;;;;10.02;49.89;100721.29;1677428;84;21921;-82
2023/10/18 01:46:08;;;;;;;15.13;10.50;;;;;;;10.16;49.63;100726.14;1675228;84;21331;-81
2023/10/18 01:49:13;;;;;;;19.07;11.80;;;;;;;10.11;49.53;100723.53;1675198;85;21659;-80
2023/10/18 01:52:19;;;;;;;19.82;12.47;;;;;;;9.97;50.07;100729.97;1674045;84;21330;-80
2023/10/18 01:55:31;;;;;;;23.83;12.47;;;;;;;9.82;50.46;100727.47;1673622;85;21940;-81
2023/10/18 01:58:35;;;;;;;21.97;13.85;;;;;;;9.70;51.01;100726.05;1674672;85;21881;-80
2023/10/18 02:01:44;;;;;;;19.70;13.03;;;;;;;10.19;50.41;100721.70;1673495;84;21339;-79
2023/10/18 02:04:50;;;;;;;19.48;11.97;;;;;;;9.80;51.07;100731.40;1674648;85;21675;-81
2023/10/18 02:07:56;;;;;;;16.02;10.78;;;;;;;10.14;50.53;100735.00;1673384;84;21330;-82
2023/10/18 02:11:05;;;;;;;18.87;11.48;;;;;;;9.72;51.15;100731.68;1673995;84;21692;-82
2023/10/18 02:14:10;;;;;;;18.30;12.03;;;;;;;10.36;49.92;100724.03;1674499;85;21315;-81
2023/10/18 02:17:18;;;;;;;16.00;10.95;;;;;;;9.97;50.50;100728.61;1674118;84;21793;-82
2023/10/18 02:20:26;;;;;;;16.52;11.38;;;;;;;9.98;50.62;100734.93;1674612;85;21315;-79
2023/10/18 02:23:35;;;;;;;17.57;11.12;;;;;;;10.20;49.69;100734.84;1674748;85;21299;-83
2023/10/18 02:26:53;;;;;;;19.85;11.78;;;;;;;10.41;48.96;100731.23;1674344;84;21864;-83
2023/10/18 02:29:51;;;;;;;18.37;12.43;;;;;;;10.40;48.92;100734.99;1640889;85;21293;-81
2023/10/18 02:33:01;;;;;;;19.20;12.73;;;;;;;10.20;49.45;100730.23;1654148;86;21310;-80
2023/10/18 02:36:06;;;;;;;16.80;12.07;;;;;;;9.86;49.42;100738.43;1654112;85;21977;-80
2023/10/18 02:39:22;;;;;;;17.23;12.07;;;;;;;10.41;48.96;100735.33;1654308;86;21339;-80
2023/10/18 02:42:24;;;;;;;17.80;11.95;;;;;;;9.83;49.27;100736.00;1653080;85;21361;-81
2023/10/18 02:45:30;;;;;;;19.42;13.32;;;;;;;9.50;50.37;100734.92;1637821;87;21785;-82
2023/10/18 02:48:35;;;;;;;21.55;13.00;;;;;;;9.64;50.55;100732.13;1640646;87;21358;-80
2023/10/18 02:51:43;;;;;;;18.10;12.47;;;;;;;9.30;51.04;100731.53;1649240;85;21725;-82
2023/10/18 02:54:51;;;;;;;19.65;12.63;;;;;;;9.67;50.68;100731.81;1649058;87;21310;-81
2023/10/18 02:57:57;;;;;;;24.95;13.43;;;;;;;9.53;51.01;100725.06;1649652;86;21333;-81
2023/10/18 03:01:09;;;;;;;20.65;14.65;;;;;;;10.01;49.85;100725.53;1652590;85;21329;-80
2023/10/18 03:04:14;;;;;;;24.87;15.45;;;;;;;9.37;51.66;100732.63;1652553;86;21915;-79
2023/10/18 03:07:22;;;;;;;23.38;14.28;;;;;;;9.78;50.16;100730.17;1624764;87;21340;-82
2023/10/18 03:10:32;;;;;;;26.40;14.60;;;;;;;10.27;49.42;100733.73;1638319;87;21326;-82
2023/10/18 03:13:37;;;;;;;23.20;14.15;;;;;;;10.08;49.57;100730.70;1627929;88;21310;-81
2023/10/18 03:16:46;;;;;;;24.95;14.83;;;;;;;10.18;49.50;100727.34;1621561;88;21346;-82
2023/10/18 03:19:57;;;;;;;24.02;15.18;;;;;;;10.09;49.46;100731.05;1641212;87;21314;-83
2023/10/18 03:23:02;;;;;;;26.57;16.07;;;;;;;9.87;50.14;100729.20;1622385;88;21299;-83
2023/10/18 03:26:11;;;;;;;23.50;14.70;;;;;;;9.90;50.43;100723.94;1641346;87;21724;-80
2023/10/18 03:29:17;;;;;;;26.42;17.82;;;;;;;9.61;51.25;100727.00;1641575;87;21297;-82
2023/10/18 03:32:24;;;;;;;24.70;15.63;;;;;;;10.03;50.44;100723.00;1640565;87;21882;-79
2023/10/18 03:35:31;;;;;;;28.92;15.65;;;;;;;10.04;50.30;100728.80;1641392;87;21328;-81
2023/10/18 03:38:41;;;;;;;24.00;15.08;;;;;;;9.50;51.13;100724.00;1641368;87;21341;-83
2023/10/18 03:41:46;;;;;;;26.05;14.75;;;;;;;9.42;51.43;100720.72;1641003;87;21344;-79
2023/10/18 03:44:53;;;;;;;25.10;16.27;;;;;;;9.42;51.23;100722.09;1653523;85;21354;-80
2023/10/18 03:47:59;;;;;;;24.52;15.55;;;;;;;9.22;51.30;100728.72;1645451;86;21214;-79
2023/10/18 03:51:05;;;;;;;25.82;15.78;;;;;;;9.71;50.94;100734.58;1664542;86;21349;-79
2023/10/18 03:54:14;;;;;;;24.52;13.90;;;;;;;10.25;49.10;100735.25;1665646;86;21322;-82
2023/10/18 03:57:19;;;;;;;24.23;13.88;;;;;;;9.80;50.08;100735.50;1665508;86;21366;-80
2023/10/18 04:03:30;;;;;;;28.38;14.95;;;;;;;9.54;50.28;100736.84;1664510;86;21899;-80
2023/10/18 04:06:36;;;;;;;22.70;14.75;;;;;;;9.84;49.69;100739.11;1665701;86;21362;-80
2023/10/18 04:10:18;;;;;;;19.48;13.80;;;;;;;9.78;49.78;100738.87;1665743;86;21294;-81
2023/10/18 04:12:56;;;;;;;25.75;13.65;;;;;;;9.68;49.55;100738.98;1664894;86;21302;-80
2023/10/18 04:16:11;;;;;;;24.40;14.13;;;;;;;9.66;49.86;100743.25;1665789;86;21323;-81
2023/10/18 04:19:19;;;;;;;36.53;15.48;;;;;;;9.77;49.31;100746.22;1665698;86;21342;-82
2023/10/18 04:22:24;;;;;;;21.75;13.22;;;;;;;10.00;49.11;100752.01;1664510;86;21891;-81
2023/10/18 04:25:30;;;;;;;25.68;14.40;;;;;;;9.94;48.84;100756.25;1665749;86;21780;-81
2023/10/18 04:28:39;;;;;;;23.62;14.63;;;;;;;10.14;48.25;100760.11;1665633;86;21307;-79
2023/10/18 04:31:46;;;;;;;27.48;16.15;;;;;;;9.59;49.30;100759.92;1665144;86;21429;-80
2023/10/18 04:34:51;;;;;;;28.85;15.83;;;;;;;9.66;49.64;100758.80;1664623;86;22026;-79
2023/10/18 04:37:57;;;;;;;40.23;17.48;;;;;;;9.65;49.49;100755.72;1665505;86;21793;-82
2023/10/18 04:41:08;;;;;;;27.85;15.03;;;;;;;9.37;50.21;100753.62;1664474;86;21895;-82
2023/10/18 04:44:24;;;;;;;20.10;13.32;;;;;;;9.48;49.89;100756.09;1665707;86;21303;-80
2023/10/18 04:47:32;;;;;;;20.00;12.58;;;;;;;9.60;49.75;100755.34;1664391;86;21326;-83
2023/10/18 04:50:39;;;;;;;20.12;11.53;;;;;;;9.78;49.17;100758.86;1664648;86;21231;-82
2023/10/18 04:53:45;;;;;;;16.30;11.48;;;;;;;9.79;49.17;100764.70;1664860;86;21699;-82
2023/10/18 04:56:56;;;;;;;19.60;11.78;;;;;;;10.07;48.61;100767.23;1665144;86;21342;-82
2023/10/18 05:00:10;;;;;;;18.77;11.75;;;;;;;10.08;48.73;100767.61;1665659;86;21298;-83
2023/10/18 05:03:13;;;;;;;28.07;13.62;;;;;;;10.33;48.18;100769.47;1664824;86;21259;-81
2023/10/18 05:06:18;;;;;;;24.10;15.90;;;;;;;9.91;49.54;100772.10;1665215;86;21306;-80
2023/10/18 05:09:31;;;;;;;26.57;15.05;;;;;;;10.03;49.38;100768.61;1665780;86;21283;-83
2023/10/18 05:12:46;;;;;;;30.15;17.20;;;;;;;10.30;48.91;100769.78;1665505;86;21411;-82
2023/10/18 05:15:43;;;;;;;24.15;16.30;;;;;;;9.95;49.72;100763.94;1659040;86;21295;-83
2023/10/18 05:18:50;;;;;;;24.18;15.58;;;;;;;10.36;49.27;100767.78;1654056;86;21889;-79
2023/10/18 05:21:55;;;;;;;24.82;16.25;;;;;;;10.54;49.28;100768.18;1664721;85;21717;-80
2023/10/18 05:25:22;;;;;;;27.22;16.80;;;;;;;10.65;49.30;100763.80;1645960;87;21371;-83
2023/10/18 05:28:28;;;;;;;25.48;15.65;;;;;;;10.92;49.43;100770.89;1651244;86;21312;-82
2023/10/18 05:34:55;;;;;;;22.67;15.03;;;;;;;11.57;48.73;100767.34;1622087;87;21381;-81
2023/10/18 05:38:48;;;;;;;24.27;16.73;;;;;;;11.47;49.32;100765.63;1647400;87;21880;-80
2023/10/18 05:41:21;;;;;;;23.27;17.95;;;;;;;11.84;49.02;100767.02;1645238;85;21858;-83
2023/10/18 05:44:16;;;;;;;22.55;17.82;;;;;;;11.90;49.15;100770.45;1641060;85;21946;-84
2023/10/18 05:47:21;;;;;;;31.23;20.60;;;;;;;11.80;49.84;100771.62;1636374;85;21303;-81
2023/10/18 05:50:27;;;;;;;39.50;22.75;;;;;;;11.74;50.19;100780.02;1655179;84;21340;-83
2023/10/18 05:53:32;;;;;;;30.48;19.40;;;;;;;12.06;50.15;100775.56;1634190;87;21662;-80
2023/10/18 05:56:40;;;;;;;31.57;20.43;;;;;;;11.82;50.81;100774.57;1663160;86;21703;-84
2023/10/18 05:59:48;;;;;;;28.62;18.23;;;;;;;11.98;51.07;100775.05;1655533;86;21927;-82
2023/10/18 06:02:56;;;;;;;25.82;16.97;;;;;;;12.14;50.97;100774.15;1661512;84;21307;-82
2023/10/18 06:06:02;;;;;;;27.65;16.77;;;;;;;12.42;50.50;100782.32;1663735;84;21908;-82
2023/10/18 06:09:11;;;;;;;23.22;15.68;;;;;;;12.45;50.62;100783.31;1659909;86;21772;-81
2023/10/18 06:12:27;;;;;;;24.82;15.55;;;;;;;12.26;51.69;100776.87;1624818;87;21301;-81
2023/10/18 06:15:38;;;;;;;27.62;15.72;;;;;;;12.60;51.55;100779.83;1665527;86;21312;-81
2023/10/18 06:18:45;;;;;;;27.90;15.63;;;;;;;12.70;51.72;100773.12;1655728;86;21268;-81
2023/10/18 06:21:57;;;;;;;24.30;16.10;;;;;;;12.93;51.64;100773.14;1651799;86;21840;-81
2023/10/18 06:25:03;;;;;;;26.17;17.27;;;;;;;13.39;50.96;100776.48;1670531;86;21304;-82
2023/10/18 06:28:08;;;;;;;22.58;14.47;;;;;;;13.39;50.93;100774.59;1656345;86;21289;-81
2023/10/18 06:31:15;;;;;;;28.25;15.93;;;;;;;13.51;50.91;100769.53;1649425;86;21306;-82
2023/10/18 06:34:29;;;;;;;28.65;16.97;;;;;;;13.92;50.06;100770.52;1633819;87;21299;-81
2023/10/18 06:37:41;;;;;;;28.97;16.87;;;;;;;13.80;50.44;100771.50;1666350;86;21864;-81
2023/10/18 06:40:50;;;;;;;22.58;14.85;;;;;;;13.86;50.24;100764.39;1645863;86;21344;-82
2023/10/18 06:43:55;;;;;;;24.47;16.50;;;;;;;14.03;50.43;100764.58;1631594;87;21350;-81
2023/10/18 06:47:06;;;;;;;27.15;16.15;;;;;;;14.20;50.30;100758.36;1663171;84;21726;-81
2023/10/18 06:50:11;;;;;;;30.02;16.77;;;;;;;14.57;49.87;100759.66;1644200;86;21330;-80
2023/10/18 06:53:17;;;;;;;26.50;16.42;;;;;;;14.55;50.28;100761.77;1663414;86;21325;-80
2023/10/18 06:56:25;;;;;;;24.90;15.78;;;;;;;14.32;50.74;100754.10;1660632;86;21337;-81
2023/10/18 06:59:32;;;;;;;21.52;15.58;;;;;;;14.88;50.37;100757.20;1662700;86;21299;-80
2023/10/18 07:02:38;;;;;;;21.23;15.32;;;;;;;14.97;49.58;100757.42;1660022;85;21356;-80
2023/10/18 07:05:46;;;;;;;27.27;15.63;;;;;;;15.22;49.77;100755.67;1660381;85;21609;-81
2023/10/18 07:08:52;;;;;;;26.90;15.45;;;;;;;14.71;50.41;100758.46;1658053;85;21614;-81
2023/10/18 07:12:03;;;;;;;23.22;14.40;;;;;;;15.37;49.93;100751.47;1650149;86;21299;-81
2023/10/18 07:15:09;;;;;;;22.45;14.18;;;;;;;15.20;50.47;100748.14;1657612;86;21950;-81
2023/10/18 07:18:14;;;;;;;27.73;14.35;;;;;;;15.43;49.97;100748.80;1658777;86;21317;-81
2023/10/18 07:21:24;;;;;;;28.00;15.75;;;;;;;15.40;50.04;100745.05;1660747;86;21275;-81
2023/10/18 07:24:36;;;;;;;23.10;14.28;;;;;;;15.54;50.12;100743.27;1670865;84;21330;-81
2023/10/18 07:27:41;;;;;;;21.90;13.93;;;;;;;15.78;49.85;100742.87;1671686;85;21302;-81
2023/10/18 07:30:46;;;;;;;19.17;11.45;;;;;;;16.04;49.47;100739.47;1669534;85;21336;-81
2023/10/18 07:33:52;;;;;;;24.70;11.83;;;;;;;15.79;49.72;100734.06;1670601;84;21301;-80
2023/10/18 07:36:58;;;;;;;24.43;13.10;;;;;;;16.05;48.96;100736.18;1667258;85;21934;-80
2023/10/18 07:40:08;;;;;;;25.08;11.53;;;;;;;15.74;49.24;100733.81;1662957;84;21850;-80
2023/10/18 07:43:15;;;;;;;23.87;14.30;;;;;;;16.34;48.56;100730.41;1657624;85;21290;-81
2023/10/18 07:46:24;;;;;;;23.18;13.58;;;;;;;16.34;48.54;100728.18;1671907;84;21286;-81
2023/10/18 07:49:31;;;;;;;22.22;12.98;;;;;;;16.64;48.16;100728.73;1669255;85;21940;-81
2023/10/18 07:52:36;;;;;;;23.62;12.47;;;;;;;16.65;48.26;100736.49;1657403;86;21666;-80
2023/10/18 07:55:47;;;;;;;20.08;10.68;;;;;;;17.00;47.58;100729.87;1654967;86;21360;-80
2023/10/18 07:58:53;;;;;;;23.62;10.25;;;;;;;17.28;47.02;100727.48;1636319;87;21320;-82
2023/10/18 08:05:30;;;;;;;14.80;6.87;;;;;;;17.70;46.39;100723.48;1645235;86;21996;-81
2023/10/18 08:08:31;;;;;;;10.13;6.47;;;;;;;17.56;46.37;100732.30;1635783;87;21335;-80
2023/10/18 08:11:37;;;;;;;15.32;7.47;;;;;;;17.68;45.75;100733.89;1664479;84;21307;-81
2023/10/18 08:14:46;;;;;;;14.85;6.92;;;;;;;17.28;46.13;100730.25;1648520;86;21351;-82
2023/10/18 08:17:50;;;;;;;13.18;6.42;;;;;;;17.33;45.67;100730.47;1639756;87;21315;-81
2023/10/18 08:21:06;;;;;;;16.67;7.50;;;;;;;17.65;45.19;100732.10;1632703;86;21256;-81
2023/10/18 08:24:06;;;;;;;;;;;;;;;17.33;45.56;100727.17;1653434;86;21322;-82
2023/10/18 08:27:11;;;;;;;10.13;5.55;;;;;;;17.25;45.93;100731.52;1649093;86;20729;-81
2023/10/18 08:33:42;;;;;;;17.12;7.25;;;;;;;17.14;45.63;100734.05;1639940;86;21952;-82
2023/10/18 08:36:50;;;;;;;20.82;7.95;;;;;;;17.94;44.65;100724.77;1667706;85;21875;-80
2023/10/18 08:39:56;;;;;;;17.42;6.50;;;;;;;17.78;44.74;100727.95;1650793;86;21324;-81
2023/10/18 08:43:17;;;;;;;19.65;6.67;;;;;;;17.57;44.61;100724.86;1639866;87;22454;-83
2023/10/18 08:46:24;;;;;;;11.40;5.10;;;;;;;17.67;44.18;100725.81;1639720;86;21304;-82
2023/10/18 08:49:32;;;;;;;12.53;5.72;;;;;;;17.74;43.66;100717.03;1661119;86;21327;-82
2023/10/18 08:52:39;;;;;;;12.28;5.40;;;;;;;17.87;43.58;100723.38;1644948;86;21301;-81
2023/10/18 08:55:45;;;;;;;8.33;4.87;;;;;;;18.06;43.81;100716.11;1655109;86;21268;-82
2023/10/18 08:58:51;;;;;;;14.85;5.70;;;;;;;17.84;43.33;100715.52;1640890;87;21295;-83
2023/10/18 09:02:17;;;;;;;10.75;5.05;;;;;;;17.99;43.32;100710.29;1632190;86;21323;-83
2023/10/18 09:05:22;;;;;;;13.13;5.05;;;;;;;18.03;43.06;100706.88;1657406;86;21291;-81
2023/10/18 09:08:28;;;;;;;12.07;4.90;;;;;;;18.25;43.00;100700.52;1651549;86;21393;-82
2023/10/18 09:11:34;;;;;;;10.80;5.65;;;;;;;18.46;42.66;100702.17;1645232;85;21341;-83
2023/10/18 09:14:39;;;;;;;9.83;5.20;;;;;;;18.26;42.85;100700.02;1630419;87;21901;-82
2023/10/18 09:17:45;;;;;;;9.28;4.45;;;;;;;18.32;42.13;100699.14;1624057;87;21312;-84
2023/10/18 09:20:51;;;;;;;11.48;4.80;;;;;;;18.34;41.40;100685.91;1660870;84;21303;-84
2023/10/18 09:23:59;;;;;;;7.28;4.22;;;;;;;18.53;41.29;100684.98;1650874;86;21335;-83
2023/10/18 09:27:01;;;;;;;10.13;4.50;;;;;;;18.37;40.41;100685.48;1626088;87;21949;-83
2023/10/18 09:29:54;;;;;;;9.38;4.25;;;;;;;18.44;40.77;100669.68;1648939;86;21821;-83
2023/10/18 09:32:59;;;;;;;8.43;4.47;;;;;;;18.32;41.04;100673.68;1661593;86;21325;-83
2023/10/18 09:36:18;;;;;;;13.65;6.03;;;;;;;18.35;40.59;100668.25;1599635;86;21375;-84
2023/10/18 09:39:11;;;;;;;8.78;5.40;;;;;;;18.38;40.55;100668.64;1635182;87;22238;-83
2023/10/18 09:42:16;;;;;;;7.33;4.45;;;;;;;18.55;40.51;100669.01;1607675;87;21834;-84
2023/10/18 09:45:22;;;;;;;9.30;4.47;;;;;;;18.42;39.35;100666.83;1667354;86;21326;-83
2023/10/18 09:48:31;;;;;;;7.97;4.50;;;;;;;18.36;39.29;100662.48;1660301;86;21824;-84
2023/10/18 09:51:36;;;;;;;6.95;4.65;;;;;;;18.35;39.46;100648.87;1633306;86;21378;-84
2023/10/18 09:54:42;;;;;;;7.53;4.72;;;;;;;18.39;39.47;100648.72;1637699;87;21845;-83
2023/10/18 09:57:59;;;;;;;8.43;5.08;;;;;;;18.35;39.16;100641.41;1633101;86;21297;-84
2023/10/18 10:01:13;;;;;;;9.88;4.45;;;;;;;18.36;38.75;100633.41;1655800;86;21975;-83
2023/10/18 10:04:08;;;;;;;7.58;4.05;;;;;;;18.03;39.22;100629.38;1660394;86;21308;-83
2023/10/18 10:07:37;;;;;;;8.25;4.05;;;;;;;18.07;39.14;100636.19;1643255;86;21331;-84
2023/10/18 10:10:45;;;;;;;5.87;3.05;;;;;;;18.23;38.79;100623.77;1648097;86;21706;-83
2023/10/18 10:13:51;;;;;;;5.90;3.52;;;;;;;18.48;38.09;100625.24;1646470;86;21344;-83
2023/10/18 10:17:11;;;;;;;7.25;3.72;;;;;;;18.08;38.29;100626.80;1634169;86;21280;-84
2023/10/18 10:20:21;;;;;;;8.60;3.58;;;;;;;18.03;38.40;100624.38;1622296;87;21315;-82
2023/10/18 10:23:25;;;;;;;6.47;3.75;;;;;;;17.90;38.74;100616.95;1641478;86;21339;-83
2023/10/18 10:26:35;;;;;;;8.93;3.90;;;;;;;17.81;38.16;100614.95;1627217;87;21268;-83
2023/10/18 10:29:42;;;;;;;6.20;3.42;;;;;;;17.90;38.66;100612.80;1667729;86;21291;-83
2023/10/18 10:32:48;;;;;;;7.30;3.67;;;;;;;18.03;38.03;100605.85;1633955;87;21920;-81
2023/10/18 10:35:53;;;;;;;5.62;3.52;;;;;;;18.05;37.14;100607.01;1632371;87;21919;-82
2023/10/18 10:39:12;;;;;;;10.63;4.03;;;;;;;18.09;37.63;100605.51;1634755;87;21265;-81
2023/10/18 10:42:19;;;;;;;7.17;4.08;;;;;;;18.05;37.26;100588.48;1637526;86;21336;-81
2023/10/18 10:48:45;;;;;;;9.10;4.28;;;;;;;18.07;37.41;100581.36;1658725;86;21866;-84
2023/10/18 10:51:49;;;;;;;7.95;4.35;;;;;;;17.63;38.35;100581.01;1648749;85;21979;-81
2023/10/18 10:54:57;;;;;;;7.75;3.87;;;;;;;17.74;38.21;100580.94;1619264;88;21356;-84
2023/10/18 10:58:15;;;;;;;5.22;3.30;;;;;;;17.67;38.43;100582.81;1619494;87;21851;-83
2023/10/18 11:01:13;;;;;;;12.73;2.90;;;;;;;17.98;37.54;100579.37;1661616;86;21646;-82
2023/10/18 11:04:46;;;;;;;5.67;3.17;;;;;;;18.00;36.21;100579.98;1665825;86;21884;-81
2023/10/18 11:07:39;;;;;;;6.47;3.40;;;;;;;17.84;36.11;100577.71;1657878;85;21385;-83
2023/10/18 11:10:46;;;;;;;7.47;3.17;;;;;;;18.13;35.98;100577.17;1666383;85;21303;-84
2023/10/18 11:13:55;;;;;;;8.48;3.30;;;;;;;18.22;36.01;100567.24;1668061;85;21856;-83
2023/10/18 11:20:30;;;;;;;6.20;3.27;;;;;;;17.91;36.08;100557.77;1628728;87;21296;-82
2023/10/18 11:23:29;;;;;;;4.85;2.98;;;;;;;17.78;36.26;100551.73;1649354;85;21399;-83
2023/10/18 11:26:40;;;;;;;8.33;2.47;;;;;;;17.62;36.04;100548.89;1657390;85;22295;-82
2023/10/18 11:29:45;;;;;;;7.58;2.87;;;;;;;17.35;35.82;100540.33;1657312;86;21342;-82
2023/10/18 11:32:58;;;;;;;5.33;2.90;;;;;;;17.23;35.74;100540.14;1620465;87;21378;-81
2023/10/18 11:36:08;;;;;;;6.12;2.77;;;;;;;17.38;35.47;100538.52;1647197;87;21621;-81
2023/10/18 11:39:23;;;;;;;9.63;2.55;;;;;;;17.48;34.78;100537.55;1646496;87;21335;-81
2023/10/18 11:42:20;;;;;;;4.20;2.70;;;;;;;17.71;34.81;100538.45;1628809;87;21327;-82
2023/10/18 11:45:27;;;;;;;5.97;3.22;;;;;;;17.60;34.96;100530.30;1650191;87;21343;-80
2023/10/18 11:48:43;;;;;;;4.37;2.55;;;;;;;17.52;34.99;100524.98;1620371;87;21235;-83
2023/10/18 11:51:51;;;;;;;4.20;2.70;;;;;;;17.39;35.28;100522.25;1646363;87;21316;-82
2023/10/18 11:54:58;;;;;;;6.55;2.52;;;;;;;17.31;35.31;100516.44;1668115;85;21828;-81
2023/10/18 11:58:17;;;;;;;4.83;2.35;;;;;;;17.15;35.50;100513.25;1640397;87;22288;-83
2023/10/18 12:01:33;;;;;;;3.27;2.58;;;;;;;17.35;35.21;100514.91;1641312;86;21331;-82
2023/10/18 12:04:39;;;;;;;4.42;2.83;;;;;;;17.67;34.22;100514.20;1640600;86;21285;-81
2023/10/18 12:07:46;;;;;;;5.95;2.58;;;;;;;17.51;34.69;100516.38;1648034;86;21322;-81
2023/10/18 12:10:53;;;;;;;4.97;2.65;;;;;;;17.39;34.81;100507.04;1650503;86;21930;-80
2023/10/18 12:14:00;;;;;;;5.17;2.50;;;;;;;17.59;34.52;100504.21;1642054;86;21283;-81
2023/10/18 12:17:07;;;;;;;3.98;2.20;;;;;;;17.56;34.42;100499.14;1648963;86;21282;-83
2023/10/18 12:20:15;;;;;;;3.20;1.80;;;;;;;17.60;34.39;100497.11;1658001;86;22369;-81
2023/10/18 12:23:22;;;;;;;3.58;2.30;;;;;;;17.55;33.96;100495.53;1656373;86;21892;-81
2023/10/18 12:26:27;;;;;;;4.08;2.12;;;;;;;17.19;34.28;100495.19;1652205;85;21653;-81
2023/10/18 12:29:32;;;;;;;4.92;2.90;;;;;;;17.19;34.82;100484.97;1638015;86;21887;-82
2023/10/18 12:32:51;;;;;;;3.75;2.25;;;;;;;17.25;34.72;100488.78;1651936;85;21988;-81
2023/10/18 12:35:56;;;;;;;3.87;2.20;;;;;;;17.19;34.04;100480.83;1658185;84;21360;-83
2023/10/18 12:39:01;;;;;;;3.58;1.95;;;;;;;17.17;33.92;100480.71;1645552;86;21294;-82
2023/10/18 12:42:06;;;;;;;4.22;2.33;;;;;;;17.20;33.80;100476.14;1655975;85;21731;-81
2023/10/18 12:45:18;;;;;;;5.97;3.12;;;;;;;17.34;33.81;100470.90;1639105;86;21292;-82
2023/10/18 12:48:22;;;;;;;5.12;2.47;;;;;;;17.04;34.26;100465.87;1666075;86;21834;-82
2023/10/18 12:51:34;;;;;;;3.77;2.33;;;;;;;17.02;34.17;100462.45;1670399;84;21312;-81
2023/10/18 12:54:38;;;;;;;6.42;2.35;;;;;;;17.26;33.81;100458.15;1653390;86;21340;-81
2023/10/18 12:57:49;;;;;;;5.75;2.08;;;;;;;17.15;34.18;100456.59;1671871;85;21304;-81
2023/10/18 13:00:55;;;;;;;3.87;2.27;;;;;;;17.11;34.40;100452.88;1669924;85;21400;-82
2023/10/18 13:03:59;;;;;;;2.80;1.98;;;;;;;17.04;34.34;100452.05;1671886;85;21307;-81
2023/10/18 13:07:19;;;;;;;3.35;1.92;;;;;;;16.90;34.37;100453.14;1681461;84;21947;-81
2023/10/18 13:10:29;;;;;;;2.60;2.05;;;;;;;16.93;34.48;100454.06;1681533;85;21350;-81
2023/10/18 13:13:30;;;;;;;4.83;2.10;;;;;;;17.04;34.26;100452.59;1682247;85;21350;-82
2023/10/18 13:16:35;;;;;;;2.85;1.90;;;;;;;17.06;34.17;100449.91;1682581;84;21327;-82
2023/10/18 13:19:45;;;;;;;3.52;2.50;;;;;;;17.02;33.82;100445.03;1655129;86;21905;-82
2023/10/18 13:22:57;;;;;;;3.83;2.52;;;;;;;16.77;34.03;100441.56;1638847;86;21370;-81
2023/10/18 13:26:03;;;;;;;3.05;2.27;;;;;;;16.94;33.98;100441.98;1657841;85;21366;-81
2023/10/18 13:29:03;;;;;;;4.37;2.72;;;;;;;17.27;33.72;100441.06;1665192;85;21219;-83
2023/10/18 13:32:15;;;;;;;2.90;2.00;;;;;;;16.93;34.18;100440.25;1637521;86;21377;-83
2023/10/18 13:35:18;;;;;;;6.25;2.40;;;;;;;16.79;34.38;100439.42;1637938;87;21940;-81
2023/10/18 13:38:24;;;;;;;4.05;2.17;;;;;;;16.82;34.38;100442.30;1665041;86;21325;-82
2023/10/18 13:41:29;;;;;;;5.85;2.55;;;;;;;16.89;34.37;100434.88;1664702;85;21337;-81
2023/10/18 13:44:36;;;;;;;4.53;2.70;;;;;;;16.88;34.26;100435.91;1665205;86;21306;-81
2023/10/18 13:47:41;;;;;;;3.95;2.20;;;;;;;16.98;34.13;100432.16;1665608;84;21297;-81
2023/10/18 13:50:53;;;;;;;4.53;2.77;;;;;;;17.04;34.02;100427.72;1665562;86;21314;-82
2023/10/18 13:53:55;;;;;;;7.12;2.72;;;;;;;16.98;33.81;100422.50;1665715;86;21294;-82
2023/10/18 13:57:01;;;;;;;4.30;2.47;;;;;;;16.84;33.89;100423.08;1653847;86;21835;-81
2023/10/18 14:00:09;;;;;;;10.60;2.90;;;;;;;16.32;34.51;100430.25;1667712;86;21345;-81
2023/10/18 14:03:15;;;;;;;4.33;2.50;;;;;;;16.00;34.97;100425.03;1667759;86;21341;-81
2023/10/18 14:06:21;;;;;;;8.65;2.20;;;;;;;16.22;34.92;100426.22;1653149;86;21318;-80
2023/10/18 14:09:33;;;;;;;8.30;2.60;;;;;;;16.14;35.21;100422.27;1681055;85;21695;-81
2023/10/18 14:12:35;;;;;;;5.45;2.83;;;;;;;15.87;36.10;100420.85;1682621;85;21702;-81
2023/10/18 14:15:43;;;;;;;5.50;2.27;;;;;;;15.83;36.14;100419.56;1680708;85;21784;-80
2023/10/18 14:18:50;;;;;;;4.47;2.83;;;;;;;15.56;36.37;100418.05;1680744;85;21295;-81
2023/10/18 14:21:56;;;;;;;4.90;2.98;;;;;;;15.64;36.54;100415.69;1654335;85;21322;-80
2023/10/18 14:25:07;;;;;;;7.83;2.55;;;;;;;15.60;36.74;100415.21;1664482;85;21276;-81
2023/10/18 14:28:12;;;;;;;6.95;2.50;;;;;;;15.55;36.71;100421.88;1665935;86;21302;-81
2023/10/18 14:31:20;;;;;;;7.80;2.30;;;;;;;15.73;36.57;100417.20;1665735;86;21306;-82
2023/10/18 14:34:26;;;;;;;14.78;3.67;;;;;;;16.18;36.11;100418.03;1665633;86;21318;-82
2023/10/18 14:37:32;;;;;;;6.65;2.50;;;;;;;15.53;36.86;100412.98;1665702;86;21863;-82
2023/10/18 14:40:37;;;;;;;9.78;2.98;;;;;;;15.60;36.90;100412.98;1665625;86;21353;-82
2023/10/18 14:43:47;;;;;;;22.98;8.88;;;;;;;15.47;37.04;100408.27;1665416;86;21325;-82